Time;durP1;ratioP1;P1;durP2;ratioP2;P2;SDS_P1;SDS_P2;PMS_P1;PMS_P2;Temp;Humidity;BMP_temperature;BMP_pressure;BME280_temperature;BME280_humidity;BME280_pressure;Samples;Min_cycle;Max_cycle;Signal;HPM_P1;HPM_P2
2023/02/18 00:01:37;;;;;;;9.90;8.52;;;;;;;19.57;46.24;102175.00;5122626;27;20034;-67
2023/02/18 00:04:03;;;;;;;10.05;8.05;;;;;;;19.54;45.94;102165.44;5122387;27;20019;-68
2023/02/18 00:06:31;;;;;;;9.45;8.45;;;;;;;19.52;46.26;102167.34;5122448;27;20420;-68
2023/02/18 00:09:00;;;;;;;10.52;8.40;;;;;;;19.53;46.31;102162.91;5102951;27;20411;-68
2023/02/18 00:11:26;;;;;;;9.57;8.10;;;;;;;19.52;46.35;102170.00;5121327;27;20107;-68
2023/02/18 00:13:58;;;;;;;9.77;8.05;;;;;;;19.48;46.17;102163.22;5122740;27;20038;-68
2023/02/18 00:16:24;;;;;;;10.38;8.32;;;;;;;19.47;46.25;102166.81;5122442;27;20043;-67
2023/02/18 00:18:53;;;;;;;9.45;7.88;;;;;;;19.47;46.21;102158.88;5121541;27;20041;-68
2023/02/18 00:21:18;;;;;;;10.73;8.60;;;;;;;19.48;46.37;102154.44;5121882;27;20054;-69
2023/02/18 00:23:43;;;;;;;9.90;8.75;;;;;;;19.45;46.27;102159.94;5122173;27;20464;-68
2023/02/18 00:26:14;;;;;;;11.73;9.23;;;;;;;19.47;46.24;102158.03;5121972;27;20046;-68
2023/02/18 00:28:41;;;;;;;10.32;8.20;;;;;;;19.45;46.29;102154.63;5121985;27;20091;-67
2023/02/18 00:31:07;;;;;;;9.82;8.57;;;;;;;19.44;46.27;102150.28;5122190;27;20035;-68
2023/02/18 00:33:32;;;;;;;11.05;8.88;;;;;;;19.44;46.27;102159.09;5122191;27;20055;-68
2023/02/18 00:36:06;;;;;;;10.13;8.95;;;;;;;19.40;46.44;102153.13;5121910;27;20058;-69
2023/02/18 00:38:31;;;;;;;13.33;9.97;;;;;;;19.44;46.26;102147.66;5121987;27;20110;-68
2023/02/18 00:40:58;;;;;;;10.27;8.70;;;;;;;19.42;46.19;102149.56;5122150;27;20113;-68
2023/02/18 00:43:23;;;;;;;10.32;9.00;;;;;;;19.37;46.23;102134.00;5121865;27;20034;-68
2023/02/18 00:45:48;;;;;;;11.73;9.35;;;;;;;19.39;46.46;102125.03;5121840;27;20467;-69
2023/02/18 00:48:13;;;;;;;12.35;9.35;;;;;;;19.42;46.24;102129.25;5121827;27;20070;-67
2023/02/18 00:50:39;;;;;;;11.52;8.88;;;;;;;19.39;46.09;102122.38;5121579;28;20027;-67
2023/02/18 00:53:04;;;;;;;10.40;9.05;;;;;;;19.35;46.18;102112.13;5102766;28;20083;-68
2023/02/18 00:55:30;;;;;;;11.93;9.48;;;;;;;19.37;46.62;102115.50;5121906;28;20024;-68
2023/02/18 00:57:55;;;;;;;11.70;9.23;;;;;;;19.36;46.22;102121.75;5121886;27;20031;-68
2023/02/18 01:00:20;;;;;;;11.05;8.70;;;;;;;19.30;46.27;102103.66;5121613;28;20038;-68
2023/02/18 01:02:46;;;;;;;11.07;8.68;;;;;;;19.34;46.42;102116.56;5121798;28;20111;-69
2023/02/18 01:05:11;;;;;;;11.02;9.27;;;;;;;19.33;46.25;102114.84;5121717;27;20395;-69
2023/02/18 01:07:36;;;;;;;11.05;8.95;;;;;;;19.34;46.26;102111.28;5121971;27;20805;-68
2023/02/18 01:10:03;;;;;;;11.48;9.23;;;;;;;19.31;46.46;102103.56;5121402;27;20031;-67
2023/02/18 01:12:28;;;;;;;11.32;8.40;;;;;;;19.30;46.42;102107.13;5121784;27;20044;-69
2023/02/18 01:14:53;;;;;;;9.85;7.93;;;;;;;19.31;46.27;102107.97;5121568;27;20386;-69
2023/02/18 01:17:18;;;;;;;10.45;8.45;;;;;;;19.29;46.48;102105.44;5121678;27;20041;-69
2023/02/18 01:19:44;;;;;;;10.60;8.90;;;;;;;19.31;46.46;102107.97;5102569;28;20031;-67
2023/02/18 01:22:09;;;;;;;12.05;8.07;;;;;;;19.27;46.39;102103.84;5103996;27;20294;-68
2023/02/18 01:24:34;;;;;;;10.73;8.25;;;;;;;19.28;46.29;102109.03;5125422;27;20394;-67
2023/02/18 01:26:59;;;;;;;10.90;8.85;;;;;;;19.28;46.33;102098.47;5125756;27;20110;-68
2023/02/18 01:29:25;;;;;;;9.50;8.20;;;;;;;19.28;46.61;102098.47;5125283;27;20142;-68
2023/02/18 01:31:50;;;;;;;11.85;8.75;;;;;;;19.26;46.52;102100.34;5106891;27;20035;-67
2023/02/18 01:34:15;;;;;;;10.73;7.95;;;;;;;19.24;46.51;102096.13;5125422;27;20374;-68
2023/02/18 01:36:41;;;;;;;10.80;7.88;;;;;;;19.26;46.57;102104.78;5125397;27;20031;-68
2023/02/18 01:39:06;;;;;;;10.52;7.47;;;;;;;19.22;46.57;102090.94;5124971;27;20030;-68
2023/02/18 01:41:32;;;;;;;9.25;7.65;;;;;;;19.25;46.63;102093.38;5125719;27;20023;-68
2023/02/18 01:44:14;;;;;;;9.02;7.20;;;;;;;19.23;46.57;102087.31;5125345;27;21105;-68
2023/02/18 01:46:39;;;;;;;11.07;7.35;;;;;;;19.23;46.63;102087.31;5125097;27;20035;-68
2023/02/18 01:49:05;;;;;;;9.38;7.13;;;;;;;19.21;46.60;102084.78;5124705;27;20044;-68
2023/02/18 01:51:38;;;;;;;10.50;7.70;;;;;;;19.17;46.67;102083.31;5124862;27;20529;-68
2023/02/18 01:54:38;;;;;;;9.85;7.32;;;;;;;19.21;46.67;102079.50;5125389;27;20122;-67
2023/02/18 01:57:09;;;;;;;9.07;6.53;;;;;;;19.23;46.61;102084.69;5104366;27;20043;-68
2023/02/18 01:59:41;;;;;;;8.80;7.07;;;;;;;19.20;46.73;102080.47;5124830;27;20474;-68
2023/02/18 02:02:12;;;;;;;8.60;6.95;;;;;;;19.16;46.65;102071.03;5124707;27;20035;-69
2023/02/18 02:04:38;;;;;;;9.15;7.07;;;;;;;19.19;46.76;102072.63;5125085;27;20035;-67
2023/02/18 02:07:04;;;;;;;8.25;6.35;;;;;;;19.16;46.63;102070.19;5124935;27;20034;-68
2023/02/18 02:09:33;;;;;;;9.68;6.95;;;;;;;19.15;46.77;102079.06;5124599;27;20083;-67
2023/02/18 02:12:12;;;;;;;9.10;7.15;;;;;;;19.16;46.76;102073.69;5124534;27;20042;-67
2023/02/18 02:15:03;;;;;;;8.02;6.63;;;;;;;19.15;46.76;102061.44;5124600;27;21027;-67
2023/02/18 02:17:54;;;;;;;8.13;6.15;;;;;;;19.16;46.85;102067.56;5114931;27;20043;-68
2023/02/18 02:20:57;;;;;;;9.48;6.75;;;;;;;19.15;46.80;102064.06;5124126;27;20023;-67
2023/02/18 02:24:07;;;;;;;9.65;6.70;;;;;;;19.14;46.82;102054.44;5124524;27;20383;-69
2023/02/18 02:26:48;;;;;;;8.57;6.10;;;;;;;19.14;46.82;102049.16;5108288;27;20035;-67
2023/02/18 02:29:16;;;;;;;8.90;6.47;;;;;;;19.14;46.82;102049.16;5124140;27;20038;-68
2023/02/18 02:32:06;;;;;;;9.27;6.55;;;;;;;19.12;47.05;102040.50;5124257;27;20073;-70
2023/02/18 02:34:44;;;;;;;8.88;6.63;;;;;;;19.09;46.81;102035.41;5123007;27;20034;-68
2023/02/18 02:37:24;;;;;;;8.43;6.38;;;;;;;19.12;46.71;102035.22;5124036;27;20035;-67
2023/02/18 02:40:05;;;;;;;8.30;6.07;;;;;;;19.10;46.95;102028.31;5123879;27;20897;-68
2023/02/18 02:42:46;;;;;;;9.10;6.25;;;;;;;19.09;46.96;102024.84;5124157;27;20570;-68
2023/02/18 02:45:40;;;;;;;9.05;6.50;;;;;;;19.08;46.69;102023.13;5124373;27;20031;-68
2023/02/18 02:48:22;;;;;;;7.57;5.95;;;;;;;19.09;46.78;102011.63;5122337;27;20895;-68
2023/02/18 02:51:03;;;;;;;7.82;6.13;;;;;;;19.06;46.92;102008.31;5123529;27;20030;-69
2023/02/18 02:53:32;;;;;;;8.25;5.72;;;;;;;19.07;46.87;102005.59;5088416;27;20428;-69
2023/02/18 02:55:58;;;;;;;7.45;5.80;;;;;;;19.07;46.96;102012.69;5123890;27;20495;-67
2023/02/18 02:58:23;;;;;;;7.70;5.43;;;;;;;19.06;46.97;102000.41;5123844;27;20027;-67
2023/02/18 03:01:06;;;;;;;8.35;5.53;;;;;;;19.05;46.99;102006.66;5105328;27;20752;-67
2023/02/18 03:03:57;;;;;;;8.02;5.70;;;;;;;19.04;46.95;102000.50;5123846;27;20574;-69
2023/02/18 03:07:07;;;;;;;7.90;5.00;;;;;;;19.05;47.07;101988.16;5123493;27;20023;-68
2023/02/18 03:09:32;;;;;;;7.32;5.30;;;;;;;19.06;46.99;101990.69;5059863;28;20036;-68
2023/02/18 03:12:06;;;;;;;6.93;5.10;;;;;;;19.02;47.01;101987.41;5059949;28;20040;-68
2023/02/18 03:14:46;;;;;;;6.65;4.60;;;;;;;18.98;47.22;101978.00;5094705;27;20757;-67
2023/02/18 03:17:23;;;;;;;6.25;4.60;;;;;;;19.00;47.09;101967.34;5123154;27;20042;-67
2023/02/18 03:20:08;;;;;;;6.45;4.65;;;;;;;19.01;46.95;101969.03;5123396;27;20023;-67
2023/02/18 03:22:40;;;;;;;6.25;4.38;;;;;;;19.02;47.11;101957.50;5123575;27;20079;-67
2023/02/18 03:25:07;;;;;;;6.88;4.78;;;;;;;19.00;47.02;101949.69;5123465;27;20074;-68
2023/02/18 03:27:43;;;;;;;6.20;4.35;;;;;;;18.98;47.14;101948.94;5123701;27;20039;-67
2023/02/18 03:30:34;;;;;;;5.93;4.22;;;;;;;18.98;47.18;101937.53;5123162;27;20475;-68
2023/02/18 03:33:04;;;;;;;6.05;3.95;;;;;;;18.98;46.92;101930.44;5123218;27;20035;-68
2023/02/18 03:35:29;;;;;;;6.15;4.07;;;;;;;18.99;47.09;101921.59;5123389;27;20092;-68
2023/02/18 03:38:05;;;;;;;5.65;3.70;;;;;;;18.98;47.44;101929.63;5122848;27;20039;-68
2023/02/18 03:40:31;;;;;;;5.15;3.63;;;;;;;18.99;46.95;101918.94;5122877;27;20138;-69
2023/02/18 03:42:57;;;;;;;6.10;4.00;;;;;;;18.95;47.15;101913.97;5123012;27;20526;-67
2023/02/18 03:45:24;;;;;;;5.70;3.70;;;;;;;18.97;47.02;101918.19;5122684;27;20055;-68
2023/02/18 03:47:50;;;;;;;5.53;3.35;;;;;;;18.94;47.13;101912.25;5122906;27;20085;-67
2023/02/18 03:50:15;;;;;;;5.30;3.60;;;;;;;18.94;47.19;101905.19;5122305;27;20071;-67
2023/02/18 03:52:40;;;;;;;5.10;3.17;;;;;;;18.94;47.26;101901.69;5122855;27;20022;-68
2023/02/18 03:55:06;;;;;;;5.10;3.47;;;;;;;18.92;47.27;101896.53;5122583;27;20049;-67
2023/02/18 03:57:31;;;;;;;5.07;3.22;;;;;;;18.96;47.21;101905.06;5122995;27;20031;-67
2023/02/18 03:59:57;;;;;;;4.75;3.08;;;;;;;18.96;47.15;101902.44;5122488;27;20038;-68
2023/02/18 04:02:22;;;;;;;4.47;2.80;;;;;;;18.88;47.17;101891.56;5122548;27;20084;-69
2023/02/18 04:04:47;;;;;;;5.05;3.38;;;;;;;18.92;47.13;101888.59;5122376;27;20063;-68
2023/02/18 04:07:12;;;;;;;4.20;2.70;;;;;;;18.94;47.11;101888.50;5122443;27;20043;-69
2023/02/18 04:09:38;;;;;;;4.20;2.60;;;;;;;18.90;47.08;101885.22;5121996;27;20031;-69
2023/02/18 04:12:03;;;;;;;4.85;2.70;;;;;;;18.90;47.23;101881.72;5122603;27;20165;-70
2023/02/18 04:14:29;;;;;;;4.65;2.72;;;;;;;18.93;47.11;101882.38;5122298;27;20123;-69
2023/02/18 04:16:54;;;;;;;4.30;2.33;;;;;;;18.89;46.91;101869.47;5123021;27;20031;-68
2023/02/18 04:19:19;;;;;;;4.20;2.70;;;;;;;18.89;46.94;101866.84;5121861;27;20057;-68
2023/02/18 04:21:44;;;;;;;4.57;2.60;;;;;;;18.88;47.21;101859.84;5122537;27;20027;-68
2023/02/18 04:24:10;;;;;;;4.00;2.42;;;;;;;18.88;46.96;101862.50;5122058;27;20038;-69
2023/02/18 04:26:35;;;;;;;4.68;2.50;;;;;;;18.89;47.08;101880.88;5122318;27;20031;-70
2023/02/18 04:29:00;;;;;;;4.28;2.50;;;;;;;18.91;47.06;101878.13;5121815;27;20481;-69
2023/02/18 04:31:26;;;;;;;3.97;2.55;;;;;;;18.88;47.10;101876.53;5122104;27;20532;-70
2023/02/18 04:33:51;;;;;;;4.90;2.10;;;;;;;18.88;47.20;101870.41;5122002;27;20032;-67
2023/02/18 04:36:16;;;;;;;3.88;2.00;;;;;;;18.91;47.07;101867.56;5122143;27;20138;-68
2023/02/18 04:38:42;;;;;;;4.00;2.10;;;;;;;18.89;47.16;101872.13;5121428;27;20107;-68
2023/02/18 04:41:07;;;;;;;4.57;2.47;;;;;;;18.89;47.29;101875.59;5122150;27;20459;-67
2023/02/18 04:43:32;;;;;;;3.72;2.05;;;;;;;18.89;47.12;101882.69;5122042;27;20096;-67
2023/02/18 04:45:58;;;;;;;4.18;2.10;;;;;;;18.88;46.99;101873.06;5122275;27;20099;-68
2023/02/18 04:48:23;;;;;;;3.60;2.10;;;;;;;18.90;47.09;101879.06;5120450;27;20035;-67
2023/02/18 04:50:49;;;;;;;3.60;2.00;;;;;;;18.89;47.22;101875.59;5121729;27;20027;-67
2023/02/18 04:53:14;;;;;;;3.67;2.00;;;;;;;18.87;47.24;101860.78;5121914;28;20395;-68
2023/02/18 04:55:39;;;;;;;4.32;2.00;;;;;;;18.87;47.07;101856.38;5121570;27;20118;-68
2023/02/18 04:58:05;;;;;;;3.92;2.08;;;;;;;18.86;47.23;101857.31;5124351;27;20428;-69
2023/02/18 05:00:30;;;;;;;3.58;1.70;;;;;;;18.82;47.06;101853.19;5126036;27;20042;-68
2023/02/18 05:02:55;;;;;;;3.72;1.92;;;;;;;18.85;47.10;101860.94;5126062;27;20039;-68
2023/02/18 05:05:21;;;;;;;4.78;1.80;;;;;;;18.83;47.06;101850.44;5125943;27;21008;-68
2023/02/18 05:07:46;;;;;;;2.78;1.58;;;;;;;18.84;47.23;101846.84;5125995;27;20053;-68
2023/02/18 05:10:15;;;;;;;3.60;1.67;;;;;;;18.81;47.24;101841.75;5125679;27;20031;-67
2023/02/18 05:12:40;;;;;;;3.33;1.77;;;;;;;18.83;47.03;101842.50;5107671;27;20035;-68
2023/02/18 05:15:06;;;;;;;2.92;1.70;;;;;;;18.81;47.07;101839.13;5125692;27;20065;-68
2023/02/18 05:17:32;;;;;;;3.38;1.80;;;;;;;18.81;47.31;101843.56;5125655;27;20023;-68
2023/02/18 05:19:58;;;;;;;4.35;1.60;;;;;;;18.84;47.11;101846.84;5125606;27;20035;-68
2023/02/18 05:22:23;;;;;;;2.95;1.70;;;;;;;18.83;47.15;101844.28;5125884;27;20093;-67
2023/02/18 05:24:48;;;;;;;2.90;1.52;;;;;;;18.80;47.08;101824.22;5126060;27;20031;-68
2023/02/18 05:27:13;;;;;;;3.17;1.63;;;;;;;18.80;47.14;101826.88;5106935;27;20084;-67
2023/02/18 05:29:39;;;;;;;2.95;1.40;;;;;;;18.81;47.21;101820.63;5125221;27;20387;-68
2023/02/18 05:32:04;;;;;;;3.05;1.60;;;;;;;18.78;47.23;101823.47;5125410;27;20080;-68
2023/02/18 05:34:30;;;;;;;2.75;1.40;;;;;;;18.80;47.22;101826.00;5125784;27;20114;-68
2023/02/18 05:36:55;;;;;;;2.60;1.23;;;;;;;18.78;47.08;101812.06;5125649;27;20031;-68
2023/02/18 05:39:20;;;;;;;2.72;1.48;;;;;;;18.78;47.30;101818.19;5124280;27;20378;-68
2023/02/18 05:41:45;;;;;;;3.13;1.40;;;;;;;18.79;47.29;101821.69;5125074;27;20031;-68
2023/02/18 05:44:29;;;;;;;2.73;1.33;;;;;;;18.78;47.29;101827.91;5125206;27;20027;-68
2023/02/18 05:46:54;;;;;;;3.08;1.30;;;;;;;18.79;47.00;101835.75;5125101;27;20370;-67
2023/02/18 05:49:20;;;;;;;3.33;1.52;;;;;;;18.76;47.34;101835.13;5125193;27;20118;-68
2023/02/18 05:51:45;;;;;;;2.95;1.45;;;;;;;18.77;47.19;101828.84;5106226;27;20031;-68
2023/02/18 05:54:10;;;;;;;2.63;1.40;;;;;;;18.74;47.18;101829.94;5125008;27;20031;-68
2023/02/18 05:56:36;;;;;;;2.60;1.30;;;;;;;18.77;47.17;101828.84;5125274;27;20393;-68
2023/02/18 05:59:01;;;;;;;2.80;1.27;;;;;;;18.73;47.29;101819.47;5124810;27;20042;-68
2023/02/18 06:01:26;;;;;;;2.75;1.45;;;;;;;18.73;47.29;101809.75;5124684;27;20023;-68
2023/02/18 06:03:52;;;;;;;2.60;1.33;;;;;;;18.73;47.37;101801.81;5124996;27;20073;-68
2023/02/18 06:06:17;;;;;;;3.05;1.35;;;;;;;18.73;47.16;101788.63;5106118;27;20027;-69
2023/02/18 06:08:42;;;;;;;2.20;1.20;;;;;;;18.75;47.22;101799.06;5124508;27;20250;-68
2023/02/18 06:11:07;;;;;;;2.35;1.30;;;;;;;18.76;47.20;101800.78;5124555;27;20031;-69
2023/02/18 06:13:33;;;;;;;2.28;1.40;;;;;;;18.71;47.27;101798.44;5125077;27;20028;-67
2023/02/18 06:15:58;;;;;;;2.47;1.35;;;;;;;18.73;47.10;101798.34;5124492;27;20090;-68
2023/02/18 06:18:24;;;;;;;2.17;1.20;;;;;;;18.71;47.14;101792.31;5124515;27;20042;-68
2023/02/18 06:20:49;;;;;;;2.63;1.30;;;;;;;18.70;47.24;101793.28;5124320;27;20353;-69
2023/02/18 06:23:14;;;;;;;1.98;1.00;;;;;;;18.71;46.99;101787.03;5106025;27;20547;-68
2023/02/18 06:25:40;;;;;;;2.63;1.30;;;;;;;18.69;47.10;101792.41;5124061;27;20117;-68
2023/02/18 06:28:06;;;;;;;2.47;1.10;;;;;;;18.71;46.99;101790.53;5124649;27;20043;-67
2023/02/18 06:30:31;;;;;;;2.08;1.10;;;;;;;18.73;47.38;101793.91;5124147;27;20033;-69
2023/02/18 06:32:56;;;;;;;1.85;1.10;;;;;;;18.75;47.09;101789.34;5124254;27;20506;-67
2023/02/18 06:35:22;;;;;;;2.53;1.20;;;;;;;18.76;47.46;101787.56;5124110;27;20039;-68
2023/02/18 06:37:47;;;;;;;2.40;1.05;;;;;;;18.76;47.52;101787.56;5124252;27;20038;-69
2023/02/18 06:40:13;;;;;;;1.92;1.00;;;;;;;18.81;47.61;101794.22;5123734;27;20490;-67
2023/02/18 06:42:38;;;;;;;2.35;1.20;;;;;;;18.82;47.58;101800.38;5124039;27;20804;-67
2023/02/18 06:45:05;;;;;;;1.85;1.05;;;;;;;18.85;47.46;101811.59;5123968;27;20027;-67
2023/02/18 06:47:31;;;;;;;2.47;1.20;;;;;;;18.90;47.69;101805.13;5124263;27;20039;-67
2023/02/18 06:49:56;;;;;;;2.40;1.10;;;;;;;18.89;47.46;101799.00;5124085;27;20494;-67
2023/02/18 06:52:21;;;;;;;2.35;1.30;;;;;;;18.94;47.46;101806.59;5122947;27;20395;-66
2023/02/18 06:54:46;;;;;;;2.42;1.10;;;;;;;18.96;47.46;101818.78;5124009;27;20147;-68
2023/02/18 06:57:12;;;;;;;1.73;1.00;;;;;;;18.96;47.42;101800.28;5123932;27;20035;-68
2023/02/18 06:59:37;;;;;;;2.10;1.27;;;;;;;18.95;47.33;101798.56;5123553;27;20042;-68
2023/02/18 07:02:02;;;;;;;1.60;0.90;;;;;;;19.00;47.34;101792.97;5104565;27;20072;-67
2023/02/18 07:04:28;;;;;;;1.90;1.10;;;;;;;18.98;47.46;101794.88;5123834;27;20464;-68
2023/02/18 07:06:53;;;;;;;1.98;1.00;;;;;;;18.99;47.26;101805.34;5123449;27;20031;-67
2023/02/18 07:09:18;;;;;;;2.00;1.10;;;;;;;19.02;47.41;101815.66;5123407;27;20487;-68
2023/02/18 07:11:43;;;;;;;2.03;1.20;;;;;;;19.01;47.24;101806.06;5123660;27;20099;-68
2023/02/18 07:14:09;;;;;;;1.98;1.20;;;;;;;19.02;47.17;101813.03;5123706;27;20023;-67
2023/02/18 07:16:34;;;;;;;2.00;1.30;;;;;;;19.02;47.29;101794.53;5104722;27;20278;-67
2023/02/18 07:18:59;;;;;;;2.60;1.40;;;;;;;19.06;47.23;101815.47;5123115;27;20031;-68
2023/02/18 07:21:25;;;;;;;2.55;1.30;;;;;;;19.07;46.77;101802.16;5123099;27;20325;-67
2023/02/18 07:23:50;;;;;;;2.67;1.40;;;;;;;19.06;47.12;101816.31;5123313;27;20027;-67
2023/02/18 07:26:15;;;;;;;2.83;1.30;;;;;;;19.09;46.89;101805.53;5123247;27;20046;-71
2023/02/18 07:28:41;;;;;;;4.55;1.55;;;;;;;19.07;47.16;101807.44;5123024;27;20035;-68
2023/02/18 07:31:07;;;;;;;3.03;1.40;;;;;;;19.04;47.11;101802.34;5123037;27;20023;-68
2023/02/18 07:33:33;;;;;;;3.55;1.60;;;;;;;19.10;47.09;101811.66;5123337;27;20023;-66
2023/02/18 07:36:00;;;;;;;2.58;1.40;;;;;;;19.09;47.21;101809.97;5122823;27;20467;-66
2023/02/18 07:38:26;;;;;;;4.57;1.35;;;;;;;19.06;47.33;101812.81;5122885;27;20031;-68
2023/02/18 07:40:51;;;;;;;3.90;1.60;;;;;;;19.05;47.36;101821.72;5122817;27;20038;-68
2023/02/18 07:43:17;;;;;;;3.38;1.40;;;;;;;19.05;47.45;101822.56;5122790;27;20023;-68
2023/02/18 07:45:43;;;;;;;4.13;1.92;;;;;;;19.09;47.83;101826.69;5122835;27;20031;-66
2023/02/18 07:48:09;;;;;;;3.03;1.52;;;;;;;19.05;47.65;101837.56;5122786;27;20039;-67
2023/02/18 07:50:36;;;;;;;3.90;1.50;;;;;;;19.08;47.44;101846.13;5122829;27;20078;-69
2023/02/18 07:53:03;;;;;;;3.70;1.60;;;;;;;19.05;47.53;101848.97;5122713;27;20580;-67
2023/02/18 07:55:47;;;;;;;2.90;1.40;;;;;;;19.08;47.56;101843.47;5122609;27;20035;-67
2023/02/18 07:58:19;;;;;;;4.20;1.75;;;;;;;19.10;47.24;101849.50;5123038;27;20647;-67
2023/02/18 08:00:49;;;;;;;4.45;1.33;;;;;;;19.07;47.36;101841.78;5103312;27;20039;-66
2023/02/18 08:03:18;;;;;;;4.07;1.40;;;;;;;19.07;47.26;101839.13;5122636;27;20073;-67
2023/02/18 08:05:44;;;;;;;5.40;1.55;;;;;;;19.06;47.11;101832.19;5122357;27;20051;-66
2023/02/18 08:08:15;;;;;;;3.22;1.55;;;;;;;19.07;47.30;101847.06;5122498;27;20070;-68
2023/02/18 08:10:41;;;;;;;3.28;1.70;;;;;;;19.05;47.27;101850.78;5122522;27;20023;-67
2023/02/18 08:13:06;;;;;;;4.50;1.70;;;;;;;19.07;47.22;101851.50;5122501;27;20031;-68
2023/02/18 08:15:32;;;;;;;4.38;1.38;;;;;;;19.06;47.42;101847.16;5122476;27;20054;-67
2023/02/18 08:17:57;;;;;;;3.17;1.48;;;;;;;19.05;47.43;101845.50;5122084;27;20077;-68
2023/02/18 08:20:22;;;;;;;3.55;1.52;;;;;;;19.06;47.24;101842.75;5121894;27;20034;-67
2023/02/18 08:22:48;;;;;;;3.53;1.60;;;;;;;19.08;47.27;101840.84;5122027;27;20057;-67
2023/02/18 08:25:13;;;;;;;6.22;1.80;;;;;;;19.08;47.14;101834.72;5122382;27;20088;-66
2023/02/18 08:27:38;;;;;;;4.72;1.70;;;;;;;19.07;47.45;101833.84;5122051;27;20035;-65
2023/02/18 08:30:04;;;;;;;4.95;1.65;;;;;;;19.06;47.54;101828.66;5122132;27;20046;-67
2023/02/18 08:32:29;;;;;;;4.28;1.58;;;;;;;19.06;47.34;101833.97;5102269;27;20031;-67
2023/02/18 08:34:55;;;;;;;4.43;1.65;;;;;;;19.08;47.46;101827.63;5122098;27;20035;-67
2023/02/18 08:37:20;;;;;;;3.80;1.60;;;;;;;19.06;47.29;101821.63;5122099;27;20027;-68
2023/02/18 08:39:46;;;;;;;4.32;1.50;;;;;;;19.06;47.44;101824.25;5121853;27;20074;-68
2023/02/18 08:42:11;;;;;;;5.50;1.65;;;;;;;19.07;47.38;101828.56;5121746;27;20042;-67
2023/02/18 08:44:36;;;;;;;5.53;2.67;;;;;;;19.06;47.45;101829.53;5121874;27;20046;-67
2023/02/18 08:47:01;;;;;;;4.40;1.98;;;;;;;19.09;47.28;101829.31;5121680;27;20350;-68
2023/02/18 08:49:27;;;;;;;5.47;1.67;;;;;;;19.07;47.26;101828.56;5121538;27;20613;-68
2023/02/18 08:51:52;;;;;;;5.60;1.77;;;;;;;19.09;47.15;101839.91;5121470;27;20391;-68
2023/02/18 08:54:18;;;;;;;3.85;1.70;;;;;;;19.09;47.14;101831.97;5122266;28;20495;-67
2023/02/18 08:56:43;;;;;;;7.75;2.03;;;;;;;19.06;47.44;101831.31;5122008;28;20114;-68
2023/02/18 08:59:09;;;;;;;5.60;1.70;;;;;;;19.08;47.39;101832.91;5121607;27;20103;-67
2023/02/18 09:01:34;;;;;;;4.47;1.50;;;;;;;19.08;47.69;101832.91;5103447;28;20425;-68
2023/02/18 09:04:00;;;;;;;4.32;1.60;;;;;;;19.11;47.32;101839.78;5121585;27;20052;-68
2023/02/18 09:06:25;;;;;;;4.88;1.75;;;;;;;19.08;47.46;101827.63;5121650;28;20046;-69
2023/02/18 09:08:50;;;;;;;6.72;1.90;;;;;;;19.11;47.21;101823.94;5102889;28;20034;-68
2023/02/18 09:11:18;;;;;;;6.60;2.15;;;;;;;19.09;47.13;101825.81;5121705;28;20819;-68
2023/02/18 09:13:43;;;;;;;5.30;1.95;;;;;;;19.12;47.00;101839.69;5121810;28;20039;-67
2023/02/18 09:16:17;;;;;;;7.50;1.83;;;;;;;19.09;47.09;101831.97;5121585;28;20054;-68
2023/02/18 09:18:43;;;;;;;5.07;1.90;;;;;;;19.13;46.91;101841.34;5121449;27;20027;-68
2023/02/18 09:21:10;;;;;;;5.03;1.70;;;;;;;19.11;46.84;101826.56;5119821;27;20031;-68
2023/02/18 09:23:36;;;;;;;4.32;1.50;;;;;;;19.10;46.99;101841.56;5120424;28;20039;-68
2023/02/18 09:26:04;;;;;;;5.57;1.60;;;;;;;19.10;47.07;101838.91;5121246;27;20038;-67
2023/02/18 09:28:30;;;;;;;4.30;1.40;;;;;;;19.11;46.82;101845.91;5121830;28;20467;-69
2023/02/18 09:30:55;;;;;;;4.00;1.50;;;;;;;19.10;46.69;101828.34;5121485;28;20035;-68
2023/02/18 09:33:20;;;;;;;6.95;1.95;;;;;;;19.11;46.73;101837.16;5121465;27;20031;-68
2023/02/18 09:35:46;;;;;;;4.85;1.75;;;;;;;19.12;46.49;101839.69;5121034;28;20039;-68
2023/02/18 09:38:14;;;;;;;5.68;1.77;;;;;;;19.11;46.30;101840.63;5121604;28;20043;-68
2023/02/18 09:40:44;;;;;;;5.07;1.67;;;;;;;19.13;46.40;101851.09;5121120;28;20119;-67
2023/02/18 09:43:28;;;;;;;7.22;1.88;;;;;;;19.09;46.54;101841.66;5122609;27;20501;-68
2023/02/18 09:45:54;;;;;;;5.85;1.77;;;;;;;19.10;46.16;101841.56;5106542;27;20037;-68
2023/02/18 09:48:27;;;;;;;4.57;1.48;;;;;;;19.11;46.29;101843.25;5125080;27;20035;-67
2023/02/18 09:50:53;;;;;;;6.28;1.60;;;;;;;19.11;46.21;101845.06;5124890;27;20030;-68
2023/02/18 09:53:21;;;;;;;5.50;1.58;;;;;;;19.06;46.16;101847.16;5125178;27;20042;-68
2023/02/18 09:55:47;;;;;;;4.20;1.55;;;;;;;19.07;46.26;101844.41;5124997;27;20035;-66
2023/02/18 09:58:17;;;;;;;6.32;1.63;;;;;;;19.07;46.14;101849.69;5124780;27;20033;-68
2023/02/18 10:00:50;;;;;;;5.40;1.40;;;;;;;19.06;46.09;101850.69;5124503;27;20039;-68
2023/02/18 10:03:18;;;;;;;6.45;1.67;;;;;;;19.11;46.09;101855.63;5124723;27;20045;-67
2023/02/18 10:06:04;;;;;;;5.57;1.70;;;;;;;19.11;46.03;101861.75;5124921;27;20076;-68
2023/02/18 10:08:43;;;;;;;3.95;1.50;;;;;;;19.08;46.18;101863.78;5124988;27;20480;-68
2023/02/18 10:11:20;;;;;;;5.10;1.60;;;;;;;19.06;46.08;101855.97;5124543;27;20858;-67
2023/02/18 10:13:46;;;;;;;3.55;1.40;;;;;;;19.07;46.05;101860.28;5125066;27;20066;-68
2023/02/18 10:16:16;;;;;;;6.75;1.67;;;;;;;19.08;46.05;101864.63;5124331;27;20070;-67
2023/02/18 10:18:47;;;;;;;5.75;1.40;;;;;;;19.07;46.04;101872.66;5124329;27;20035;-67
2023/02/18 10:21:18;;;;;;;3.95;1.40;;;;;;;19.07;46.00;101870.00;5124626;27;20080;-66
2023/02/18 10:23:57;;;;;;;4.88;1.52;;;;;;;19.04;46.16;101857.84;5124424;27;20031;-67
2023/02/18 10:26:23;;;;;;;6.28;1.70;;;;;;;19.08;45.97;101877.00;5123960;27;20657;-67
2023/02/18 10:28:48;;;;;;;5.85;1.65;;;;;;;19.05;45.96;101871.91;5123594;27;20118;-68
2023/02/18 10:31:32;;;;;;;7.22;1.70;;;;;;;19.03;45.99;101864.94;5124377;27;20030;-66
2023/02/18 10:33:59;;;;;;;8.55;1.60;;;;;;;18.99;45.91;101863.47;5124204;27;20367;-66
2023/02/18 10:36:53;;;;;;;7.47;1.70;;;;;;;19.08;45.79;101874.34;5122935;27;20038;-66
2023/02/18 10:39:31;;;;;;;5.30;1.73;;;;;;;19.09;45.91;101884.81;5124229;27;20030;-67
2023/02/18 10:42:06;;;;;;;5.07;1.70;;;;;;;19.06;46.04;101882.38;5124000;27;20076;-66
2023/02/18 10:44:42;;;;;;;5.20;1.55;;;;;;;19.04;45.89;101881.63;5124235;27;20076;-67
2023/02/18 10:47:24;;;;;;;5.05;1.50;;;;;;;19.05;45.81;101874.56;5124297;27;20023;-67
2023/02/18 10:49:57;;;;;;;5.82;1.70;;;;;;;19.08;46.33;101871.72;5123387;27;20070;-66
2023/02/18 10:52:25;;;;;;;4.68;1.60;;;;;;;19.05;46.10;101882.47;5122500;27;20042;-65
2023/02/18 10:55:08;;;;;;;4.43;1.50;;;;;;;19.05;46.02;101888.59;5121760;27;20027;-67
2023/02/18 10:57:34;;;;;;;6.63;1.60;;;;;;;19.07;46.36;101893.78;5121580;27;20062;-67
2023/02/18 11:00:13;;;;;;;10.98;1.85;;;;;;;19.14;46.28;101895.91;5121807;27;20050;-67
2023/02/18 11:02:40;;;;;;;4.47;1.38;;;;;;;19.15;46.08;101891.44;5122310;27;20036;-68
2023/02/18 11:05:27;;;;;;;4.80;1.52;;;;;;;19.15;46.20;101896.72;5118170;27;20670;-70
2023/02/18 11:07:57;;;;;;;6.13;1.80;;;;;;;19.19;46.15;101900.88;5119479;27;20028;-67
2023/02/18 11:10:34;;;;;;;8.38;1.60;;;;;;;19.19;46.08;101900.88;5114780;27;20038;-69
2023/02/18 11:13:02;;;;;;;4.50;1.50;;;;;;;19.20;45.93;101903.41;5115451;27;20165;-67
2023/02/18 11:15:28;;;;;;;5.15;1.42;;;;;;;19.18;45.98;101893.88;5114756;27;20047;-66
2023/02/18 11:18:03;;;;;;;3.28;1.30;;;;;;;19.18;46.06;101897.38;5116062;27;20113;-67
2023/02/18 11:20:36;;;;;;;6.13;1.58;;;;;;;19.15;46.08;101902.03;5114866;27;20031;-68
2023/02/18 11:23:06;;;;;;;3.63;1.58;;;;;;;19.20;46.12;101903.41;5112874;27;20026;-66
2023/02/18 11:25:38;;;;;;;6.13;1.70;;;;;;;19.19;46.24;101907.00;5114423;27;20058;-66
2023/02/18 11:28:22;;;;;;;4.63;1.30;;;;;;;19.20;46.19;101906.06;5113119;27;20058;-67
2023/02/18 11:30:52;;;;;;;;;;;;;;;19.22;46.19;101898.00;5113486;27;20405;-66
2023/02/18 11:33:22;;;;;;;5.00;1.38;;;;;;;19.26;45.94;101902.13;5094548;27;19907;-67